KTMA/TMA METAR and TAF weather

Enter ICAO airport designator
Station Type Date Time Source
KTMA METAR 2020/04/04 10:55 UTC NOAA

KTMA 041055Z AUTO 00000KT 10SM CLR 14/10 A2996 RMK AO2 T01370100


Station Type Date Time Source
KTMA Decoded METAR 2020/04/04 10:55 UTC NOAA

Station name not available
Apr 04, 2020 - 06:55 AM EDT / 2020.04.04 1055 UTC
Wind: Calm:0
Visibility: 10 mile(s):0
Sky conditions: clear
Temperature: 56.7 F (13.7 C)
Dew Point: 50.0 F (10.0 C)
Relative Humidity: 78%
Pressure (altimeter): 29.96 in. Hg (1014 hPa)
ob: KTMA 041055Z AUTO 00000KT 10SM CLR 14/10 A2996 RMK AO2 T01370100
cycle: 11

Station Type Date Time Source
KTMA TAF UTC NOAA

Error!

Example: see airport list